createdAt,value
2022-09-23T00:11:34.345Z,100142.41
2022-09-23T00:14:00.975Z,100143.47
2022-09-23T00:16:33.805Z,100152.34
2022-09-23T00:19:01.832Z,100140.81
2022-09-23T00:21:28.645Z,100140.06
2022-09-23T00:23:55.212Z,100131.56
2022-09-23T00:26:22.944Z,100135.72
2022-09-23T00:28:49.832Z,100136.78
2022-09-23T00:31:19.532Z,100142.09
2022-09-23T00:33:46.008Z,100128.09
2022-09-23T00:36:17.970Z,100135.72
2022-09-23T00:38:45.066Z,100133.16
2022-09-23T00:41:12.306Z,100132.97
2022-09-23T00:43:46.704Z,100128.63
2022-09-23T00:46:18.166Z,100119.06
2022-09-23T00:48:45.144Z,100124.16
2022-09-23T00:51:17.739Z,100125.97
2022-09-23T00:53:46.159Z,100117.38
2022-09-23T00:56:13.573Z,100115.78
2022-09-23T00:58:42.198Z,100115.78
2022-09-23T01:01:08.869Z,100113.78
2022-09-23T01:03:35.552Z,100120.66
2022-09-23T01:06:03.217Z,100113.78
2022-09-23T01:08:29.800Z,100110.28
2022-09-23T01:11:10.512Z,100116.22
2022-09-23T01:13:55.778Z,100110.47
2022-09-23T01:16:37.766Z,100103.81
2022-09-23T01:19:27.610Z,100104.13
2022-09-23T01:22:11.948Z,100102.53
2022-09-23T01:25:19.925Z,100101.03
2022-09-23T01:28:00.928Z,100093.22
2022-09-23T01:30:33.147Z,100090.56
2022-09-23T01:33:08.755Z,100094.44
2022-09-23T01:36:04.368Z,100096.25
2022-09-23T01:38:58.325Z,100096.44
2022-09-23T01:41:49.187Z,100096.03
2022-09-23T01:44:38.399Z,100092.19
2022-09-23T01:47:10.910Z,100088.88
2022-09-23T01:49:50.758Z,100089.75
2022-09-23T01:52:26.163Z,100087.22
2022-09-23T01:55:12.837Z,100091.97
2022-09-23T01:57:43.681Z,100092.34
2022-09-23T02:00:15.245Z,100086.69
2022-09-23T02:02:52.397Z,100091.03
2022-09-23T02:05:25.959Z,100086.03
2022-09-23T02:08:13.482Z,100088.66
2022-09-23T02:10:50.465Z,100085.84
2022-09-23T02:13:24.518Z,100090.09
2022-09-23T02:15:54.754Z,100080.53
2022-09-23T02:18:31.778Z,100090.09
2022-09-23T02:21:03.237Z,100081.38
2022-09-23T02:23:43.737Z,100077.78
2022-09-23T02:26:41.072Z,100077.78
2022-09-23T02:29:19.214Z,100074.09
2022-09-23T02:31:56.367Z,100068.91
2022-09-23T02:34:45.876Z,100071.34
2022-09-23T02:37:43.464Z,100073.91
2022-09-23T02:40:13.129Z,100066.69
2022-09-23T02:43:10.025Z,100061.41
2022-09-23T02:45:39.095Z,100064.91
2022-09-23T02:48:09.323Z,100071.06
2022-09-23T02:50:36.877Z,100065.00
2022-09-23T02:53:04.639Z,100065.75
2022-09-23T02:55:34.016Z,100053.47
2022-09-23T02:58:01.967Z,100044.69
2022-09-23T03:00:59.748Z,100056.03
2022-09-23T03:03:47.004Z,100053.47
2022-09-23T03:06:25.264Z,100042.16
2022-09-23T03:08:58.011Z,100042.44
2022-09-23T03:11:24.655Z,100027.63
2022-09-23T03:14:18.813Z,100042.44
2022-09-23T03:16:54.389Z,100039.03
2022-09-23T03:19:20.768Z,100039.03
2022-09-23T03:22:07.411Z,100039.16
2022-09-23T03:24:34.618Z,100040.97
2022-09-23T03:27:04.458Z,100034.06
2022-09-23T03:29:32.385Z,100029.72
2022-09-23T03:31:59.821Z,100034.06
2022-09-23T03:34:28.673Z,100028.47
2022-09-23T03:37:07.452Z,100028.56
2022-09-23T03:39:40.077Z,100027.53
2022-09-23T03:42:19.167Z,100026.13
2022-09-23T03:44:47.218Z,100022.34
2022-09-23T03:47:16.094Z,100022.97
2022-09-23T03:49:44.765Z,100016.09
2022-09-23T03:52:11.379Z,100013.34
2022-09-23T03:54:37.845Z,100009.94
2022-09-23T03:57:04.588Z,100018.53
2022-09-23T03:59:31.417Z,100009.75
2022-09-23T04:01:59.392Z,100011.66
2022-09-23T04:04:27.449Z,100011.84
2022-09-23T04:06:56.962Z,100011.84
2022-09-23T04:09:23.962Z,100007.41
2022-09-23T04:11:51.240Z,100004.09
2022-09-23T04:14:18.559Z,99994.03
2022-09-23T04:16:45.803Z,100009.63
2022-09-23T04:19:13.192Z,100001.88
2022-09-23T04:21:42.873Z,100010.84
2022-09-23T04:24:10.546Z,100011.28
2022-09-23T04:26:38.094Z,100018.47
2022-09-23T04:29:05.198Z,100008.94
2022-09-23T04:31:32.783Z,100006.78
2022-09-23T04:33:59.462Z,100007.19
2022-09-23T04:36:26.424Z,100009.50
2022-09-23T04:38:52.862Z,100009.13
2022-09-23T04:41:19.481Z,100011.44
2022-09-23T04:43:45.981Z,100013.78
2022-09-23T04:46:13.769Z,100020.06
2022-09-23T04:48:43.563Z,100018.09
2022-09-23T04:51:18.528Z,100032.22
2022-09-23T04:53:46.779Z,100026.38
2022-09-23T04:56:21.648Z,100042.84
2022-09-23T04:58:48.367Z,100040.84
2022-09-23T05:01:26.604Z,100043.25
2022-09-23T05:03:54.694Z,100042.81
2022-09-23T05:06:21.590Z,100040.56
2022-09-23T05:08:52.903Z,100036.47
2022-09-23T05:11:20.223Z,100031.66
2022-09-23T05:13:47.970Z,100035.06
2022-09-23T05:16:16.512Z,100032.97
2022-09-23T05:18:44.267Z,100044.44
2022-09-23T05:21:12.226Z,100042.97
2022-09-23T05:23:40.448Z,100037.56
2022-09-23T05:26:11.106Z,100040.44
2022-09-23T05:28:39.341Z,100035.50
2022-09-23T05:31:20.135Z,100031.25
2022-09-23T05:33:52.500Z,100036.28
2022-09-23T05:36:21.088Z,100029.41
2022-09-23T05:38:49.716Z,100033.56
2022-09-23T05:41:17.397Z,100036.00
2022-09-23T05:43:43.919Z,100036.09
2022-09-23T05:46:12.505Z,100041.88
2022-09-23T05:48:40.121Z,100047.75
2022-09-23T05:51:10.175Z,100055.38
2022-09-23T05:53:37.023Z,100052.22
2022-09-23T05:58:31.077Z,100057.13
2022-09-23T06:00:57.611Z,100052.44
2022-09-23T06:03:25.210Z,100053.13
2022-09-23T06:05:55.520Z,100056.63
2022-09-23T06:08:23.012Z,100058.06
2022-09-23T06:10:54.414Z,100055.06
2022-09-23T06:13:21.073Z,100063.28
2022-09-23T06:15:47.535Z,100053.97
2022-09-23T06:18:13.943Z,100054.38
2022-09-23T06:20:40.359Z,100057.69
2022-09-23T06:23:10.686Z,100057.69
2022-09-23T06:25:40.888Z,100044.97
2022-09-23T06:28:10.680Z,100041.97
2022-09-23T06:30:37.191Z,100042.59
2022-09-23T06:33:03.632Z,100035.28
2022-09-23T06:35:32.422Z,100033.09
2022-09-23T06:37:59.241Z,100033.56
2022-09-23T06:40:25.710Z,100028.16
2022-09-23T06:42:59.537Z,100033.75
2022-09-23T06:45:27.110Z,100037.03
2022-09-23T06:47:56.206Z,100035.06
2022-09-23T06:50:24.028Z,100039.03
2022-09-23T06:52:55.858Z,100038.56
2022-09-23T06:55:27.117Z,100035.53
2022-09-23T06:57:54.800Z,100029.75
2022-09-23T07:00:21.369Z,100023.97
2022-09-23T07:02:47.978Z,100018.19
2022-09-23T07:05:16.393Z,100030.81
2022-09-23T07:07:45.672Z,100036.88
2022-09-23T07:10:12.468Z,100033.22
2022-09-23T07:12:38.900Z,100036.25
2022-09-23T07:15:05.848Z,100044.25
2022-09-23T07:17:32.256Z,100040.56
2022-09-23T07:19:58.636Z,100042.28
2022-09-23T07:22:25.637Z,100032.06
2022-09-23T07:24:55.947Z,100037.06
2022-09-23T07:27:26.957Z,100031.47
2022-09-23T07:29:54.007Z,100039.50
2022-09-23T07:32:21.981Z,100040.78
2022-09-23T07:34:48.743Z,100045.59
2022-09-23T07:37:16.389Z,100044.25
2022-09-23T07:39:43.172Z,100051.03
2022-09-23T07:42:13.073Z,100047.28
2022-09-23T07:44:39.872Z,100044.41
2022-09-23T07:47:06.288Z,100053.09
2022-09-23T07:49:34.720Z,100056.47
2022-09-23T07:52:01.149Z,100059.66
2022-09-23T07:54:29.687Z,100055.88
2022-09-23T07:56:56.684Z,100051.88
2022-09-23T07:59:23.351Z,100053.41
2022-09-23T08:01:52.660Z,100060.09
2022-09-23T08:04:30.448Z,100055.53
2022-09-23T08:07:02.419Z,100065.06
2022-09-23T08:09:34.428Z,100065.94
2022-09-23T08:12:01.351Z,100065.59
2022-09-23T08:14:27.779Z,100062.75
2022-09-23T08:16:54.208Z,100064.75
2022-09-23T08:19:20.857Z,100067.41
2022-09-23T08:21:47.410Z,100071.47
2022-09-23T08:24:16.855Z,100072.00
2022-09-23T08:26:43.803Z,100069.91
2022-09-23T08:29:15.682Z,100070.44
2022-09-23T08:31:42.237Z,100063.03
2022-09-23T08:34:08.735Z,100071.50
2022-09-23T08:36:35.464Z,100072.03
2022-09-23T08:39:03.436Z,100070.88
2022-09-23T08:41:38.476Z,100073.41
2022-09-23T08:44:11.946Z,100067.03
2022-09-23T08:46:44.301Z,100071.16
2022-09-23T08:49:14.384Z,100071.16
2022-09-23T08:51:46.859Z,100074.56
2022-09-23T08:54:14.387Z,100070.63
2022-09-23T08:56:43.421Z,100070.09
2022-09-23T08:59:28.989Z,100074.34
2022-09-23T09:02:00.544Z,100075.84
2022-09-23T09:04:35.851Z,100068.19
2022-09-23T09:07:34.762Z,100074.25
2022-09-23T09:10:15.885Z,100066.94
2022-09-23T09:12:45.115Z,100067.66
2022-09-23T09:15:18.957Z,100064.56
2022-09-23T09:18:10.033Z,100059.91
2022-09-23T09:21:11.977Z,100062.75
2022-09-23T09:23:57.606Z,100054.97
2022-09-23T09:26:29.359Z,100055.09
2022-09-23T09:29:31.291Z,100051.25
2022-09-23T09:31:59.848Z,100055.28
2022-09-23T09:34:36.604Z,100048.16
2022-09-23T09:37:07.538Z,100046.41
2022-09-23T09:39:34.963Z,100040.59
2022-09-23T09:42:01.756Z,100040.88
2022-09-23T09:44:40.743Z,100037.03
2022-09-23T09:47:20.744Z,100037.34
2022-09-23T09:50:01.822Z,100029.88
2022-09-23T09:52:29.671Z,100019.50
2022-09-23T09:55:17.206Z,100019.69
2022-09-23T09:57:52.069Z,100017.28
2022-09-23T10:00:25.626Z,100011.16
2022-09-23T10:02:53.005Z,100000.53
2022-09-23T10:05:28.274Z,100005.16
2022-09-23T10:07:54.800Z,99999.94
2022-09-23T10:10:33.647Z,99994.16
2022-09-23T10:13:14.956Z,99989.81
2022-09-23T10:15:44.966Z,99977.47
2022-09-23T10:18:20.753Z,99977.59
2022-09-23T10:20:48.053Z,99986.78
2022-09-23T10:23:25.015Z,99982.59
2022-09-23T10:26:06.088Z,99988.00
2022-09-23T10:28:45.639Z,99985.56
2022-09-23T10:31:14.239Z,99986.50
2022-09-23T10:33:49.367Z,99976.22
2022-09-23T10:36:17.705Z,99979.66
2022-09-23T10:38:44.763Z,99977.09
2022-09-23T10:41:45.949Z,99971.13
2022-09-23T10:44:51.586Z,99969.38
2022-09-23T10:47:35.650Z,99971.88
2022-09-23T10:50:11.271Z,99963.94
2022-09-23T10:52:55.934Z,99964.84
2022-09-23T10:55:40.846Z,99959.47
2022-09-23T10:58:25.496Z,99959.53
2022-09-23T11:01:04.146Z,99959.44
2022-09-23T11:03:59.771Z,99955.97
2022-09-23T11:06:44.617Z,99955.75
2022-09-23T11:09:23.667Z,99949.34
2022-09-23T11:12:12.360Z,99952.31
2022-09-23T11:15:04.144Z,99943.22
2022-09-23T11:17:42.688Z,99939.28
2022-09-23T11:20:31.105Z,99938.72
2022-09-23T11:23:18.576Z,99943.38
2022-09-23T11:26:20.265Z,99939.16
2022-09-23T11:28:54.986Z,99930.59
2022-09-23T11:31:29.923Z,99921.91
2022-09-23T11:34:17.387Z,99927.13
2022-09-23T11:36:51.216Z,99926.88
2022-09-23T11:39:24.084Z,99923.22
2022-09-23T11:41:54.075Z,99924.16
2022-09-23T11:44:28.353Z,99915.31
2022-09-23T11:47:01.812Z,99920.09
2022-09-23T11:49:35.183Z,99922.47
2022-09-23T11:52:20.514Z,99908.41
2022-09-23T11:54:49.862Z,99909.84
2022-09-23T11:57:26.489Z,99909.28
2022-09-23T12:00:06.025Z,99909.84
2022-09-23T12:02:39.807Z,99908.81
2022-09-23T12:05:16.585Z,99905.56
2022-09-23T12:08:10.927Z,99898.09
2022-09-23T12:10:45.789Z,99905.97
2022-09-23T12:13:20.847Z,99892.03
2022-09-23T12:16:11.297Z,99891.44
2022-09-23T12:19:07.249Z,99896.06
2022-09-23T12:22:24.661Z,99886.31
2022-09-23T12:24:57.465Z,99881.78
2022-09-23T12:27:34.737Z,99886.00
2022-09-23T12:30:12.694Z,99880.91
2022-09-23T12:32:39.243Z,99885.69
2022-09-23T12:35:05.920Z,99885.75
2022-09-23T12:37:37.929Z,99875.19
2022-09-23T12:40:21.449Z,99867.22
2022-09-23T12:42:48.313Z,99864.34
2022-09-23T12:45:31.237Z,99868.81
2022-09-23T12:48:17.844Z,99865.66
2022-09-23T12:50:53.525Z,99864.81
2022-09-23T12:53:53.104Z,99860.84
2022-09-23T12:56:39.664Z,99857.00
2022-09-23T12:59:28.743Z,99852.47
2022-09-23T13:01:55.477Z,99856.56
2022-09-23T13:05:01.757Z,99861.00
2022-09-23T13:07:31.957Z,99858.69
2022-09-23T13:10:18.569Z,99852.88
2022-09-23T13:12:46.065Z,99849.44
2022-09-23T13:15:18.116Z,99846.97
2022-09-23T13:17:44.829Z,99849.63
2022-09-23T13:20:20.476Z,99841.75
2022-09-23T13:22:49.915Z,99838.63
2022-09-23T13:25:20.452Z,99836.91
2022-09-23T13:27:49.982Z,99838.91
2022-09-23T13:30:25.906Z,99829.38
2022-09-23T13:33:12.734Z,99827.50
2022-09-23T13:35:42.039Z,99828.50
2022-09-23T13:38:28.001Z,99827.34
2022-09-23T13:41:14.596Z,99819.41
2022-09-23T13:43:48.023Z,99822.00
2022-09-23T13:46:20.504Z,99820.84
2022-09-23T13:48:49.072Z,99816.16
2022-09-23T13:51:31.669Z,99812.03
2022-09-23T13:53:59.579Z,99808.53
2022-09-23T13:56:28.901Z,99807.88
2022-09-23T13:59:01.819Z,99797.75
2022-09-23T14:01:33.754Z,99795.41
2022-09-23T14:04:02.101Z,99792.41
2022-09-23T14:06:31.752Z,99791.22
2022-09-23T14:09:00.259Z,99800.28
2022-09-23T14:11:32.954Z,99791.88
2022-09-23T14:14:00.744Z,99788.69
2022-09-23T14:16:27.934Z,99783.00
2022-09-23T14:19:00.455Z,99784.41
2022-09-23T14:21:38.414Z,99785.47
2022-09-23T14:24:29.545Z,99779.28
2022-09-23T14:27:08.218Z,99781.50
2022-09-23T14:29:40.178Z,99782.34
2022-09-23T14:32:20.813Z,99770.94
2022-09-23T14:34:50.781Z,99769.63
2022-09-23T14:37:45.973Z,99770.63
2022-09-23T14:40:24.848Z,99772.28
2022-09-23T14:43:24.092Z,99775.66
2022-09-23T14:45:59.870Z,99761.72
2022-09-23T14:48:35.976Z,99756.19
2022-09-23T14:51:04.561Z,99757.19
2022-09-23T14:53:34.320Z,99753.34
2022-09-23T14:56:06.856Z,99755.97
2022-09-23T14:58:55.224Z,99757.94
2022-09-23T15:01:30.869Z,99750.06
2022-09-23T15:04:14.148Z,99752.19
2022-09-23T15:06:45.045Z,99760.50
2022-09-23T15:09:17.493Z,99754.16
2022-09-23T15:11:44.034Z,99758.28
2022-09-23T15:14:35.951Z,99749.22
2022-09-23T15:16:56.992Z,99751.38
2022-09-23T15:19:23.441Z,99743.81
2022-09-23T15:21:52.631Z,99744.16
2022-09-23T15:24:35.404Z,99746.13
2022-09-23T15:27:02.240Z,99746.31
2022-09-23T15:29:28.982Z,99735.06
2022-09-23T15:31:55.490Z,99747.63
2022-09-23T15:34:21.959Z,99740.88
2022-09-23T15:36:49.499Z,99739.38
2022-09-23T15:39:15.883Z,99744.88
2022-09-23T15:41:43.412Z,99743.06
2022-09-23T15:44:14.495Z,99745.03
2022-09-23T15:46:51.740Z,99751.00
2022-09-23T15:49:29.083Z,99752.66
2022-09-23T15:51:59.120Z,99749.44
2022-09-23T15:54:25.630Z,99749.06
2022-09-23T15:56:52.025Z,99747.03
2022-09-23T15:59:19.061Z,99744.28
2022-09-23T16:01:45.830Z,99743.91
2022-09-23T16:04:15.347Z,99748.06
2022-09-23T16:06:45.258Z,99743.84
2022-09-23T16:09:13.448Z,99737.97
2022-09-23T16:11:44.053Z,99737.59
2022-09-23T16:14:14.113Z,99729.88
2022-09-23T16:16:42.067Z,99729.50
2022-09-23T16:19:08.587Z,99733.47
2022-09-23T16:21:34.999Z,99736.63
2022-09-23T16:24:01.557Z,99735.25
2022-09-23T16:26:31.192Z,99732.16
2022-09-23T16:28:58.540Z,99730.97
2022-09-23T16:31:26.592Z,99728.72
2022-09-23T16:33:53.369Z,99729.22
2022-09-23T16:36:28.736Z,99731.47
2022-09-23T16:38:55.575Z,99727.56
2022-09-23T16:41:27.548Z,99726.63
2022-09-23T16:43:53.936Z,99716.56
2022-09-23T16:46:20.892Z,99725.19
2022-09-23T16:48:52.329Z,99724.94
2022-09-23T16:51:21.706Z,99720.31
2022-09-23T16:53:49.188Z,99726.28
2022-09-23T16:56:16.867Z,99731.25
2022-09-23T16:58:43.900Z,99732.66
2022-09-23T17:01:49.313Z,99727.38
2022-09-23T17:04:16.810Z,99721.63
2022-09-23T17:06:50.757Z,99730.34
2022-09-23T17:09:19.757Z,99724.78
2022-09-23T17:11:48.117Z,99719.19
2022-09-23T17:14:15.540Z,99720.63
2022-09-23T17:16:42.119Z,99724.69
2022-09-23T17:19:10.542Z,99720.63
2022-09-23T17:21:37.082Z,99723.84
2022-09-23T17:24:03.847Z,99714.63
2022-09-23T17:26:30.333Z,99717.00
2022-09-23T17:28:58.651Z,99727.25
2022-09-23T17:31:25.864Z,99726.69
2022-09-23T17:33:52.749Z,99723.50
2022-09-23T17:36:20.059Z,99723.91
2022-09-23T17:38:48.205Z,99728.69
2022-09-23T17:41:15.415Z,99726.31
2022-09-23T17:43:41.883Z,99731.81
2022-09-23T18:38:35.972Z,99709.63
2022-09-23T18:41:37.800Z,99713.13
2022-09-23T18:44:08.012Z,99723.88
2022-09-23T18:46:37.357Z,99718.25
2022-09-23T18:52:07.361Z,99712.38
2022-09-23T18:54:34.102Z,99710.69
2022-09-23T18:57:01.198Z,99705.34
2022-09-23T18:59:29.531Z,99701.81
2022-09-23T19:01:56.706Z,99698.34
2022-09-23T19:04:24.889Z,99696.66
2022-09-23T19:06:51.866Z,99706.03
2022-09-23T19:09:18.837Z,99702.69
2022-09-23T19:11:45.707Z,99709.13
2022-09-23T19:14:12.579Z,99702.13
2022-09-23T19:16:40.429Z,99700.56
2022-09-23T19:19:07.643Z,99707.44
2022-09-23T19:21:34.798Z,99702.25
2022-09-23T19:24:04.312Z,99691.03
2022-09-23T19:26:33.818Z,99700.84
2022-09-23T19:29:01.281Z,99700.00
2022-09-23T19:31:30.399Z,99699.75
2022-09-23T19:33:59.956Z,99696.66
2022-09-23T19:36:33.654Z,99698.59
2022-09-23T19:39:03.269Z,99696.75
2022-09-23T19:41:35.243Z,99686.69
2022-09-23T19:44:03.184Z,99691.28
2022-09-23T19:46:31.143Z,99699.00
2022-09-23T19:48:58.042Z,99687.66
2022-09-23T19:51:24.473Z,99679.66
2022-09-23T19:53:50.992Z,99681.34
2022-09-23T19:56:18.060Z,99679.66
2022-09-23T19:58:51.048Z,99687.78
2022-09-23T20:01:18.342Z,99680.06
2022-09-23T20:03:45.281Z,99680.19
2022-09-23T20:06:11.748Z,99686.34
2022-09-23T20:08:38.554Z,99680.47
2022-09-23T20:11:11.557Z,99686.06
2022-09-23T20:13:39.279Z,99684.66
2022-09-23T20:16:10.353Z,99684.53
2022-09-23T20:18:38.017Z,99680.69
2022-09-23T20:21:05.762Z,99680.84
2022-09-23T20:23:32.402Z,99675.66
2022-09-23T20:26:18.636Z,99685.72
2022-09-23T20:28:45.170Z,99685.16
2022-09-23T20:31:12.345Z,99685.28
2022-09-23T20:33:41.407Z,99694.25
2022-09-23T20:36:09.107Z,99681.22
2022-09-23T20:38:36.380Z,99680.50
2022-09-23T20:41:03.150Z,99677.84
2022-09-23T20:43:32.196Z,99673.63
2022-09-23T20:45:58.620Z,99668.72
2022-09-23T20:48:25.479Z,99662.09
2022-09-23T20:50:51.904Z,99656.91
2022-09-23T20:53:19.451Z,99657.91
2022-09-23T20:55:53.853Z,99658.75
2022-09-23T20:58:26.863Z,99657.91
2022-09-23T21:00:54.375Z,99655.38
2022-09-23T21:03:20.917Z,99655.75
2022-09-23T21:05:47.825Z,99644.69
2022-09-23T21:08:15.784Z,99647.19
2022-09-23T21:10:42.238Z,99651.09
2022-09-23T21:13:09.043Z,99647.88
2022-09-23T21:15:35.513Z,99645.22
2022-09-23T21:18:01.943Z,99644.66
2022-09-23T21:20:28.406Z,99640.69
2022-09-23T21:22:54.899Z,99645.19
2022-09-23T21:25:28.386Z,99642.66
2022-09-23T21:27:55.555Z,99643.50
2022-09-23T21:30:22.886Z,99648.81
2022-09-23T21:32:49.335Z,99646.97
2022-09-23T21:35:16.038Z,99645.31
2022-09-23T21:37:42.466Z,99648.81
2022-09-23T21:40:27.816Z,99649.63
2022-09-23T21:42:58.926Z,99646.16
2022-09-23T21:45:25.969Z,99650.50
2022-09-23T21:47:52.739Z,99648.66
2022-09-23T21:50:19.753Z,99653.03
2022-09-23T21:52:46.425Z,99647.13
2022-09-23T21:55:13.370Z,99647.13
2022-09-23T21:57:39.874Z,99647.69
2022-09-23T22:00:07.530Z,99654.84
2022-09-23T22:02:34.386Z,99660.72
2022-09-23T22:05:00.788Z,99660.59
2022-09-23T22:07:27.233Z,99662.41
2022-09-23T22:09:53.664Z,99665.94
2022-09-23T22:12:20.097Z,99666.75
2022-09-23T22:14:47.105Z,99665.06
2022-09-23T22:17:16.116Z,99667.88
2022-09-23T22:19:47.113Z,99660.03
2022-09-23T22:22:15.213Z,99667.16
2022-09-23T22:24:46.489Z,99668.00
2022-09-23T22:27:14.282Z,99669.13
2022-09-23T22:29:59.462Z,99664.03
2022-09-23T22:32:40.857Z,99669.03
2022-09-23T22:35:09.535Z,99669.78
2022-09-23T22:37:36.698Z,99664.06
2022-09-23T22:40:09.510Z,99668.84
2022-09-23T22:42:36.445Z,99663.91
2022-09-23T22:45:05.610Z,99666.41
2022-09-23T22:47:37.554Z,99665.47
2022-09-23T22:50:05.430Z,99658.44
2022-09-23T22:52:33.258Z,99661.09
2022-09-23T22:55:00.079Z,99654.38
2022-09-23T22:57:26.588Z,99659.41
2022-09-23T22:59:53.006Z,99645.28
2022-09-23T23:02:21.343Z,99646.13
2022-09-23T23:04:48.404Z,99646.00
2022-09-23T23:07:20.278Z,99643.22
2022-09-23T23:09:50.582Z,99651.88
2022-09-23T23:12:19.797Z,99631.72
2022-09-23T23:14:47.071Z,99633.16
2022-09-23T23:17:14.854Z,99632.31
2022-09-23T23:19:41.265Z,99621.94
2022-09-23T23:22:07.689Z,99624.34
2022-09-23T23:24:34.103Z,99611.19
2022-09-23T23:27:00.541Z,99611.75
2022-09-23T23:29:27.659Z,99607.41
2022-09-23T23:31:54.262Z,99611.63
2022-09-23T23:34:20.969Z,99615.25
2022-09-23T23:36:53.339Z,99609.25
2022-09-23T23:39:20.588Z,99599.81
2022-09-23T23:41:48.650Z,99607.56
2022-09-23T23:44:15.065Z,99607.56
2022-09-23T23:46:41.509Z,99603.94
2022-09-23T23:49:08.166Z,99605.72
2022-09-23T23:51:34.577Z,99607.69
2022-09-23T23:54:01.062Z,99608.22
2022-09-23T23:56:27.846Z,99612.94
2022-09-23T23:58:59.485Z,99610.66
